Latest Coastal Weather Observations for Gabo Island

IDV60701

Issued at 9:52 pm EST Saturday 25 June 2022 (issued every 10 minutes, with the page automatically refreshed every 10 minutes)

About coastal observations | Map of coastal stations | Coastal observations for VIC | Marine services | Other Formats
Station Details ID: 084016 Name: GABO ISLAND LIGHTHOUSE Lat: -37.57 Lon: 149.92 Height: 15.0 m
Data from the previous 72 hours. | See also: Recent months at Gabo Island
Date/Time
EST
Wind Sea
Height
m
Swell Vis
km
Cloud Weather Temp
°C
Press
MSL
hPa
Rain since
9am
mm
Dir  Spd
kts
Gust
kts
Height
m
Period
s
Dir
25/09:30pm NNW 7 9 - - - - - - - 11.0 1020.7 0.0
25/09:00pm NNW 6 8 1 0.9 8 SE 35 Mostly clear Fine 10.8 1020.7 0.0
25/08:30pm N 5 7 - - - - - - - 9.7 1020.6 0.0
25/08:00pm NW 4 5 - - - - - - - 11.5 1020.6 0.0
25/07:30pm N 6 7 - - - - - - - 10.1 1020.6 0.0
25/07:00pm N 6 7 - - - - - - - 10.6 1020.5 0.0
25/06:30pm N 8 10 - - - - - - - 10.7 1020.1 0.0
25/06:00pm N 8 9 - - - - - - - 10.9 1019.8 0.0
25/05:30pm N 8 10 - - - - - - - 11.7 1019.5 0.0
25/05:00pm NNE 8 10 - - - - - - - 12.7 1019.3 0.0
25/04:30pm NNE 8 10 - - - - - - - 13.4 1019.3 0.0
25/04:00pm NNE 10 11 - - - - - - - 14.1 1019.1 0.0
25/03:30pm NE 7 9 - - - - - - - 14.7 1019.1 0.0
25/03:00pm SE 4 5 1 1.0 8 SE 50 Mostly clear Fine 15.6 1018.8 0.0
25/02:30pm S 3 4 - - - - - - - 15.8 1018.7 0.0
25/02:00pm CALM 0 0 - - - - - - - 16.5 1018.7 0.0
25/01:30pm SW 4 5 - - - - - - - 16.2 1018.9 0.0
25/01:00pm WSW 4 6 - - - - - - - 16.3 1019.1 0.0
25/12:30pm NW 5 8 - - - - - - - 16.5 1019.3 0.0
25/12:00pm NW 7 9 - - - - - - - 16.5 1019.4 0.0
25/11:30am NW 7 9 - - - - - - - 16.1 1019.5 0.0
25/11:00am NW 9 13 - - - - - - - 15.3 1019.7 0.0
25/10:30am NW 9 12 - - - - - - - 15.0 1019.8 0.0
25/10:00am NW 9 13 - - - - - - - 14.3 1019.8 0.0
25/09:30am NW 9 13 - - - - - - - 13.5 1019.4 0.0
25/09:00am NW 10 13 1 1.0 8 SE 50 Mostly clear Fine 12.9 1019.2 0.0
25/08:30am NW 9 11 - - - - - - - 11.7 1019.0 0.0
25/08:00am NW 9 13 - - - - - - - 11.0 1018.7 0.0
25/07:30am NW 9 11 - - - - - - - 10.3 1018.6 0.0
25/07:00am NW 8 12 - - - - - - - 10.4 1018.3 0.0
25/06:30am NW 8 10 - - - - - - - 10.1 1018.0 0.0
25/06:00am NW 9 11 - - - - - - - 9.9 1017.8 0.0
25/05:30am NW 5 8 - - - - - - - 9.2 1017.6 0.0
25/05:00am NW 5 6 - - - - - - - 9.7 1017.3 0.0
25/04:30am NW 3 5 - - - - - - - 9.8 1017.2 0.0
25/04:00am NW 6 7 - - - - - - - 10.6 1017.1 0.0
25/03:30am NW 8 9 - - - - - - - 10.0 1017.0 0.0
25/03:00am NW 8 9 1 1.0 8 SE 40 Mostly clear Fine 10.4 1017.0 0.0
25/02:30am NW 8 9 - - - - - - - 10.7 1017.2 0.0
25/02:00am WNW 7 9 - - - - - - - 10.2 1017.3 0.0
25/01:30am WNW 7 8 - - - - - - - 11.0 1017.3 0.0
25/01:00am NW 7 8 - - - - - - - 10.6 1017.3 0.0
25/12:30am NW 6 7 - - - - - - - 10.0 1017.4 0.0
25/12:00am NW 7 8 - - - - - - - 10.3 1017.4 0.0
 
Date/Time
EST
Wind Sea
Height
m
Swell Vis
km
Cloud Weather Temp
°C
Press
MSL
hPa
Rain since
9am
mm
Dir  Spd
kts
Gust
kts
Height
m
Period
s
Dir
24/11:30pm WNW 6 7 - - - - - - - 11.7 1017.5 0.0
24/11:00pm NW 6 7 - - - - - - - 11.8 1017.6 0.0
24/10:30pm WNW 6 7 - - - - - - - 12.1 1017.5 0.0
24/10:00pm NW 5 7 - - - - - - - 12.1 1017.3 0.0
24/09:30pm WNW 6 7 - - - - - - - 12.7 1017.4 0.0
24/09:00pm WNW 7 9 - - - - - - - 12.8 1017.1 0.0
24/08:30pm WNW 6 7 - - - - - - - 12.6 1016.9 0.0
24/08:00pm WNW 6 7 - - - - - - - 12.4 1016.5 0.0
24/07:30pm W 8 10 - - - - - - - 12.8 1016.3 0.0
24/07:00pm WSW 9 11 - - - - - - - 13.2 1016.1 0.0
24/06:30pm WSW 11 13 - - - - - - - 13.5 1015.6 0.0
24/06:00pm SW 13 16 - - - - - - - 13.9 1015.2 0.0
24/05:30pm SW 15 19 - - - - - - - 14.1 1014.8 0.0
24/05:00pm SW 15 17 - - - - - - - 14.0 1014.4 0.0
24/04:30pm SW 15 18 - - - - - - - 14.4 1013.8 0.0
24/04:00pm SSW 13 15 - - - - - - - 14.5 1013.5 0.0
24/03:30pm SSW 14 18 - - - - - - - 14.7 1013.3 0.0
24/03:00pm SSW 13 15 1 0.8 10 E 45 Mostly cloudy Fine 15.0 1013.1 0.0
24/02:30pm SSW 10 11 - - - - - - - 15.0 1012.7 0.0
24/02:00pm SSW 12 14 - - - - - - - 15.3 1012.5 0.0
24/01:30pm WSW 6 7 - - - - - - - 16.2 1012.4 0.0
24/01:00pm W 5 7 - - - - - - - 16.8 1012.2 0.0
24/12:30pm WNW 6 9 - - - - - - - 17.6 1012.2 0.0
24/12:00pm NW 7 12 - - - - - - - 17.8 1012.5 0.0
24/11:30am NW 9 15 - - - - - - - 18.3 1012.7 0.0
24/11:00am NNW 8 13 - - - - - - - 18.0 1012.9 0.0
24/10:30am NNW 8 11 - - - - - - - 16.8 1013.3 0.0
24/10:00am NNW 9 12 - - - - - - - 16.8 1013.5 0.0
24/09:30am N 10 13 - - - - - - - 16.4 1013.5 0.0
24/09:00am NNW 10 14 1 1.0 10 E 40 Cloudy Fine 16.5 1013.5 0.0
24/08:30am N 10 14 - - - - - - - 15.9 1013.5 0.0
24/08:00am N 10 14 - - - - - - - 16.2 1013.4 0.0
24/07:30am NNW 9 13 - - - - - - - 16.7 1013.4 0.0
24/07:00am NNW 11 15 - - - - - - - 16.4 1013.0 0.0
24/06:30am NNW 11 20 - - - - - - - 16.4 1012.9 0.0
24/06:00am NW 13 19 - - - - - - - 16.4 1012.7 0.0
24/05:30am NW 15 22 - - - - - - - 16.2 1012.4 0.0
24/05:00am NW 12 17 - - - - - - - 14.6 1012.5 0.0
24/04:30am NW 12 17 - - - - - - - 14.1 1012.7 0.0
24/04:00am NW 9 14 - - - - - - - 14.1 1013.2 0.0
24/03:30am NW 11 15 - - - - - - - 14.4 1013.6 0.0
24/03:00am NW 12 17 1 1.0 12 E 30 Mostly clear Fine 14.9 1013.8 0.0
24/02:30am NW 11 16 - - - - - - - 15.0 1014.0 0.0
24/02:00am NW 13 19 - - - - - - - 15.1 1014.1 0.0
24/01:30am NW 12 18 - - - - - - - 15.0 1014.2 0.0
24/01:00am NW 13 17 - - - - - - - 14.4 1014.3 0.0
24/12:30am NW 11 15 - - - - - - - 14.3 1014.7 0.0
24/12:00am NW 12 16 - - - - - - - 14.2 1015.1 0.0
 
Date/Time
EST
Wind Sea
Height
m
Swell Vis
km
Cloud Weather Temp
°C
Press
MSL
hPa
Rain since
9am
mm
Dir  Spd
kts
Gust
kts
Height
m
Period
s
Dir
23/11:30pm NNW 7 11 - - - - - - - 13.4 1015.5 0.0
23/11:00pm N 7 8 - - - - - - - 11.6 1015.9 0.0
23/10:30pm NNE 7 8 - - - - - - - 10.9 1016.1 0.0
23/10:00pm N 8 9 - - - - - - - 11.5 1016.1 0.0
23/09:30pm N 7 9 - - - - - - - 11.4 1016.5 0.0
23/09:00pm NNE 6 8 1 1.0 12 E 30 Mostly cloudy Fine 11.4 1016.7 0.0
23/08:30pm N 7 10 - - - - - - - 11.7 1017.1 0.0
23/08:00pm N 7 9 - - - - - - - 11.3 1017.1 0.0
23/07:30pm N 6 7 - - - - - - - 11.8 1017.4 0.0
23/07:00pm N 9 11 - - - - - - - 12.4 1017.2 0.0
23/06:30pm NNE 9 11 - - - - - - - 12.9 1017.2 0.0
23/06:00pm N 10 13 - - - - - - - 13.0 1017.2 0.0
23/05:30pm N 9 11 - - - - - - - 13.0 1017.4 0.0
23/05:00pm N 9 11 - - - - - - - 13.2 1017.4 0.0
23/04:30pm NNE 9 11 - - - - - - - 13.7 1017.5 0.0
23/04:00pm NNE 9 11 - - - - - - - 14.2 1017.7 0.0
23/03:30pm NNE 9 11 - - - - - - - 14.5 1017.8 0.0
23/03:00pm NNE 8 9 1 1.0 12 E 35 Mostly cloudy Fine 15.0 1018.0 0.0
23/02:30pm NNE 7 8 - - - - - - - 15.4 1018.3 0.0
23/02:00pm NNE 4 6 - - - - - - - 15.2 1018.5 0.0
23/01:30pm ENE 4 5 - - - - - - - 14.7 1018.9 0.0
23/01:00pm NNE 6 7 - - - - - - - 14.9 1019.4 0.0
23/12:30pm NNW 4 7 - - - - - - - 15.6 1019.8 0.0
23/12:00pm WNW 5 7 - - - - - - - 15.7 1020.4 0.0
23/11:30am NW 5 7 - - - - - - - 15.9 1021.0 0.0
23/11:00am NW 5 6 - - - - - - - 15.6 1021.5 0.0
23/10:30am WNW 4 6 - - - - - - - 14.9 1021.8 0.0
23/10:00am NW 4 6 - - - - - - - 14.6 1021.8 0.0
23/09:30am NW 6 7 - - - - - - - 13.6 1022.0 0.0
23/09:00am WNW 6 7 1 1.0 11 SE 40 Partly cloudy Fine 12.3 1021.9 0.2
23/08:30am W 8 10 - - - - - - - 10.8 1022.0 0.2
23/08:00am CALM 0 0 - - - - - - - 11.2 1021.7 0.2
23/07:30am WNW 6 7 - - - - - - - 11.1 1021.7 0.2
23/07:00am NNW 8 9 - - - - - - - 10.3 1021.5 0.2
23/06:30am NW 8 9 - - - - - - - 10.2 1021.7 0.2
23/06:00am WNW 7 9 - - - - - - - 10.5 1021.9 0.2
23/05:30am NW 8 9 - - - - - - - 9.9 1021.9 0.2
23/05:00am NW 7 8 - - - - - - - 9.6 1021.7 0.2
23/04:30am NW 7 8 - - - - - - - 9.8 1021.8 0.2
23/04:00am WNW 7 8 - - - - - - - 10.5 1022.1 0.2
23/03:30am WNW 7 8 - - - - - - - 10.6 1022.2 0.2
23/03:00am WNW 7 8 2 1.3 10 SE 30 Partly cloudy Fine 10.6 1022.3 0.2
23/02:30am WNW 7 8 - - - - - - - 10.7 1022.6 0.2
23/02:00am WNW 7 8 - - - - - - - 11.0 1022.7 0.2
23/01:30am WNW 7 9 - - - - - - - 11.5 1022.8 0.2
23/01:00am NW 7 10 - - - - - - - 11.6 1023.0 0.2
23/12:30am NW 7 11 - - - - - - - 11.4 1023.1 0.2
23/12:00am NW 8 10 - - - - - - - 11.8 1023.1 0.2
 
Date/Time
EST
Wind Sea
Height
m
Swell Vis
km
Cloud Weather Temp
°C
Press
MSL
hPa
Rain since
9am
mm
Dir  Spd
kts
Gust
kts
Height
m
Period
s
Dir
22/11:30pm WNW 8 11 - - - - - - - 11.9 1023.4 0.2
22/11:00pm NW 7 11 - - - - - - - 12.0 1023.6 0.2
22/10:30pm WNW 7 10 - - - - - - - 12.0 1023.6 0.2
22/10:00pm WNW 7 11 - - - - - - - 12.1 1023.5 0.2

Other formats

Comma delimited format used in spreadsheet applications
http://www.bom.gov.au/fwo/IDV60701/IDV60701.94933.axf

JavaScript Object Notation format (JSON) in row-major order
http://www.bom.gov.au/fwo/IDV60701/IDV60701.94933.json

Data quality

Most of these data are generated automatically and are frequently updated. Quality checks on data are not normally performed. It is possible for incorrect values to appear. Refer to information at About Latest Weather Observations and please check the disclaimer before using these data.